Time;durP1;ratioP1;P1;durP2;ratioP2;P2;SDS_P1;SDS_P2;PMS_P1;PMS_P2;Temp;Humidity;BMP_temperature;BMP_pressure;BME280_temperature;BME280_humidity;BME280_pressure;Samples;Min_cycle;Max_cycle;Signal;HPM_P1;HPM_P2
2024/04/10 00:08:00;;;;;;;18.60;11.30;;;;;;;17.58;82.19;99898.48;666749;1265;138891;-81
2024/04/10 00:23:05;;;;;;;16.90;9.30;;;;;;;17.87;82.61;99936.33;667497;1265;140799;-81
2024/04/10 00:38:12;;;;;;;17.10;9.60;;;;;;;18.36;84.42;99962.39;668996;1265;138868;-83
2024/04/10 00:53:16;;;;;;;17.80;9.60;;;;;;;18.38;84.79;99996.81;669684;1265;142795;-81
2024/04/10 01:08:19;;;;;;;24.00;12.40;;;;;;;18.09;84.99;100049.70;667714;1265;138645;-80
2024/04/10 01:23:23;;;;;;;23.00;11.70;;;;;;;17.74;85.53;100065.29;667870;1266;139482;-80
2024/04/10 01:38:28;;;;;;;21.40;12.10;;;;;;;17.48;86.28;100104.04;667728;1263;139466;-82
2024/04/10 01:53:32;;;;;;;28.10;14.70;;;;;;;17.34;87.20;100127.14;666618;1266;139174;-81
2024/04/10 02:08:35;;;;;;;31.60;17.90;;;;;;;17.00;88.43;100150.23;667759;1266;138839;-80
2024/04/10 02:23:38;;;;;;;23.70;15.80;;;;;;;16.91;88.61;100169.84;668911;1265;139720;-81
2024/04/10 02:38:42;;;;;;;23.10;13.80;;;;;;;16.63;88.96;100193.82;668296;1265;139159;-81
2024/04/10 02:53:45;;;;;;;24.90;13.70;;;;;;;16.43;89.36;100235.38;668040;1281;139131;-81
2024/04/10 03:08:50;;;;;;;25.90;15.90;;;;;;;16.20;89.81;100272.45;668603;1265;139529;-81
2024/04/10 03:23:54;;;;;;;25.00;17.00;;;;;;;16.18;90.39;100289.45;668858;1267;140351;-82
2024/04/10 03:38:57;;;;;;;17.30;9.90;;;;;;;15.90;89.80;100322.67;668547;1266;139130;-82
2024/04/10 03:54:00;;;;;;;7.60;3.40;;;;;;;15.46;88.56;100354.04;669794;1265;139368;-82
2024/04/10 04:09:04;;;;;;;7.30;2.70;;;;;;;15.03;86.09;100389.96;669095;1274;139630;-82
2024/04/10 04:24:07;;;;;;;3.30;2.20;;;;;;;14.80;83.82;100415.56;671028;1265;208489;-83
2024/04/10 04:39:13;;;;;;;5.10;2.70;;;;;;;14.63;83.10;100445.48;670432;1265;139519;-83
2024/04/10 04:54:16;;;;;;;6.60;2.50;;;;;;;14.75;82.69;100472.25;670967;1265;138794;-81
2024/04/10 05:09:20;;;;;;;4.70;2.80;;;;;;;15.06;82.21;100503.20;670361;1266;139281;-82
2024/04/10 05:24:23;;;;;;;6.40;3.30;;;;;;;15.49;81.64;100528.58;669075;1267;139868;-82
2024/04/10 05:39:27;;;;;;;4.60;2.70;;;;;;;16.12;80.24;100564.79;670553;1266;138772;-83
2024/04/10 05:54:30;;;;;;;6.40;3.50;;;;;;;16.48;78.50;100599.04;670552;1262;139275;-82
2024/04/10 06:09:34;;;;;;;8.60;3.60;;;;;;;16.61;76.61;100633.66;670366;1260;139952;-82
2024/04/10 06:24:37;;;;;;;8.10;3.80;;;;;;;17.11;75.58;100651.44;669731;1264;139526;-83
2024/04/10 06:39:41;;;;;;;6.80;3.20;;;;;;;18.55;73.05;100689.59;668623;1276;138726;-83
2024/04/10 06:54:44;;;;;;;7.20;2.90;;;;;;;18.45;69.81;100720.86;669370;1260;139304;-82
2024/04/10 07:09:50;;;;;;;7.10;3.00;;;;;;;19.43;69.09;100748.35;668310;1273;138212;-84
2024/04/10 07:24:54;;;;;;;6.00;3.00;;;;;;;21.20;65.36;100774.70;674402;1263;138061;-83
2024/04/10 07:39:57;;;;;;;5.60;3.00;;;;;;;20.09;62.67;100802.71;675642;1266;138012;-84
2024/04/10 07:55:04;;;;;;;8.20;2.50;;;;;;;18.15;64.18;100829.00;669011;1265;139084;-81
2024/04/10 08:10:08;;;;;;;32.30;17.30;;;;;;;17.38;65.67;100843.84;671998;1266;138426;-82
2024/04/10 08:25:13;;;;;;;13.90;6.30;;;;;;;17.57;66.86;100851.10;668021;1264;139502;-80
2024/04/10 08:40:17;;;;;;;10.20;7.10;;;;;;;17.99;66.43;100869.58;668814;1260;139361;-81
2024/04/10 08:55:20;;;;;;;14.70;8.50;;;;;;;18.28;65.29;100884.42;668436;1265;138847;-80
2024/04/10 09:10:24;;;;;;;8.30;3.90;;;;;;;17.81;65.13;100918.00;668772;1265;139152;-81
2024/04/10 09:25:27;;;;;;;6.20;3.20;;;;;;;16.80;65.92;100942.46;668499;1265;139111;-82
2024/04/10 09:40:31;;;;;;;8.20;3.40;;;;;;;16.71;67.28;100949.58;668631;1260;139000;-83
2024/04/10 09:55:39;;;;;;;4.30;2.90;;;;;;;17.02;67.16;100958.92;669039;1264;138190;-81
2024/04/10 10:10:43;;;;;;;9.60;4.10;;;;;;;17.94;66.90;100976.63;668346;1260;138467;-81
2024/04/10 10:25:49;;;;;;;4.50;2.70;;;;;;;18.74;65.26;100986.30;670762;1262;139010;-80
2024/04/10 10:50:03;;;;;;;9.50;2.60;;;;;;;19.35;64.36;100992.05;654651;1305;544958;-79
2024/04/10 11:05:15;;;;;;;5.50;3.30;;;;;;;19.42;64.43;101000.29;666278;1274;137963;-79
2024/04/10 11:20:19;;;;;;;8.90;3.70;;;;;;;18.73;64.73;101021.61;665109;1278;139086;-83
2024/04/10 11:35:23;;;;;;;11.20;2.60;;;;;;;18.93;64.71;101050.11;670964;1276;140464;-83
2024/04/10 11:50:26;;;;;;;5.50;3.70;;;;;;;18.45;64.24;101078.27;671551;1264;138390;-80
2024/04/10 12:05:29;;;;;;;7.10;3.30;;;;;;;18.00;64.98;101095.48;669573;1261;137997;-80
2024/04/10 12:20:35;;;;;;;6.00;3.10;;;;;;;18.28;65.18;101095.08;669316;1267;138485;-81
2024/04/10 12:51:00;;;;;;;8.10;2.60;;;;;;;20.22;62.96;101111.31;670316;1261;138257;-79
2024/04/10 13:06:04;;;;;;;4.30;2.20;;;;;;;19.81;62.03;101124.54;674764;1261;138730;-80
2024/04/10 13:21:08;;;;;;;5.50;2.30;;;;;;;19.58;62.03;101108.45;674999;1266;140553;-79
2024/04/10 13:36:13;;;;;;;5.70;2.70;;;;;;;19.99;62.25;101114.69;673936;1262;138387;-80
2024/04/10 13:51:18;;;;;;;7.70;4.60;;;;;;;19.84;61.79;101127.05;675932;1266;138317;-80
2024/04/10 14:06:24;;;;;;;8.20;3.60;;;;;;;19.95;62.00;101128.45;675775;1262;140786;-81
2024/04/10 14:21:29;;;;;;;5.30;3.10;;;;;;;20.14;61.20;101145.80;671660;1262;138284;-81
2024/04/10 14:36:36;;;;;;;9.00;3.20;;;;;;;19.84;60.68;101154.17;669094;1265;138621;-81
2024/04/10 14:51:40;;;;;;;5.50;2.00;;;;;;;19.54;60.41;101172.10;670803;1265;139437;-81
2024/04/10 15:06:43;;;;;;;5.20;1.70;;;;;;;19.35;61.06;101181.67;668328;1265;138695;-81
2024/04/10 15:21:46;;;;;;;7.30;2.30;;;;;;;19.42;61.17;101190.11;671751;1262;139524;-79
2024/04/10 15:36:49;;;;;;;5.50;2.50;;;;;;;18.72;62.03;101207.20;668578;1268;138874;-79
2024/04/10 15:51:52;;;;;;;59.20;30.20;;;;;;;18.40;62.42;101223.27;669137;1269;139065;-80
2024/04/10 16:06:55;;;;;;;9.70;5.90;;;;;;;18.31;63.00;101245.88;669227;1265;139091;-80
2024/04/10 16:21:59;;;;;;;8.80;6.30;;;;;;;17.96;63.09;101268.42;677826;1262;137252;-80
2024/04/10 16:37:02;;;;;;;16.70;11.20;;;;;;;17.69;62.79;101296.59;674075;1265;139602;-80
2024/04/10 16:52:06;;;;;;;46.00;25.50;;;;;;;17.16;62.77;101329.37;674626;1262;139592;-81
2024/04/10 17:07:10;;;;;;;37.40;23.50;;;;;;;16.90;63.42;101357.50;671247;1265;138940;-80
2024/04/10 17:22:13;;;;;;;76.60;38.00;;;;;;;16.65;64.06;101377.20;671578;1277;139445;-81
2024/04/10 17:37:16;;;;;;;56.00;35.70;;;;;;;16.38;64.16;101389.19;672575;1265;139227;-82
2024/04/10 17:52:20;;;;;;;29.50;18.90;;;;;;;15.99;64.92;101422.81;675321;1265;141993;-80
2024/04/10 18:07:24;;;;;;;17.90;11.10;;;;;;;15.63;65.66;101458.88;675081;1262;139588;-81
2024/04/10 18:22:27;;;;;;;16.80;7.80;;;;;;;15.39;66.82;101488.70;673181;1269;139987;-81
2024/04/10 18:37:31;;;;;;;9.60;5.40;;;;;;;15.18;67.72;101524.75;673616;1266;139826;-81
2024/04/10 18:52:35;;;;;;;9.70;5.90;;;;;;;14.94;68.12;101552.94;672063;1268;138424;-82
2024/04/10 19:07:41;;;;;;;7.80;4.00;;;;;;;14.76;68.34;101580.35;676917;1266;139452;-81
2024/04/10 19:22:44;;;;;;;7.10;3.50;;;;;;;14.48;68.64;101597.04;671963;1268;138789;-81
2024/04/10 19:37:47;;;;;;;8.60;4.00;;;;;;;14.11;69.33;101623.02;669515;1268;139325;-82
2024/04/10 19:52:52;;;;;;;11.70;5.10;;;;;;;13.70;70.11;101638.93;670058;1271;139409;-81
2024/04/10 20:07:56;;;;;;;8.90;3.00;;;;;;;13.26;70.66;101659.74;669095;1268;139072;-81
2024/04/10 20:22:58;;;;;;;6.70;2.40;;;;;;;12.94;70.87;101682.04;668077;1268;139538;-82
2024/04/10 20:38:02;;;;;;;7.90;2.40;;;;;;;12.71;71.26;101705.71;667331;1264;139015;-80
2024/04/10 20:53:05;;;;;;;10.20;3.30;;;;;;;12.46;71.54;101718.40;670448;1277;139551;-81
2024/04/10 22:24:46;;;;;;;9.50;3.60;;;;;;;10.70;74.26;101779.84;675660;1268;139894;-81
2024/04/10 22:39:51;;;;;;;9.70;3.20;;;;;;;10.63;75.23;101795.88;676370;1273;138802;-81
2024/04/10 22:55:01;;;;;;;11.50;3.50;;;;;;;10.56;74.74;101800.72;674273;1266;163184;-81
2024/04/10 23:10:06;;;;;;;14.40;4.50;;;;;;;10.56;75.04;101799.52;670951;1264;139787;-84
2024/04/10 23:25:09;;;;;;;10.60;4.60;;;;;;;10.49;74.63;101812.19;674165;1264;139932;-81
2024/04/10 23:40:14;;;;;;;9.20;3.50;;;;;;;10.44;75.53;101817.52;674800;1266;139803;-82
2024/04/10 23:55:19;;;;;;;8.00;3.20;;;;;;;10.41;74.47;101827.53;676273;1267;138974;-81
